Time;durP1;ratioP1;P1;durP2;ratioP2;P2;SDS_P1;SDS_P2;PMS_P1;PMS_P2;Temp;Humidity;BMP_temperature;BMP_pressure;BME280_temperature;BME280_humidity;BME280_pressure;Samples;Min_cycle;Max_cycle;Signal;HPM_P1;HPM_P2
2022/05/23 00:06:01;;;;;;;5.28;1.77;;;21.00;53.30;;;;;;20920076;28;20118;-68
2022/05/23 00:16:03;;;;;;;3.15;2.03;;;21.00;53.20;;;;;;20919286;28;20148;-62
2022/05/23 00:26:05;;;;;;;4.57;1.97;;;21.00;52.70;;;;;;20918331;28;20410;-67
2022/05/23 00:36:06;;;;;;;5.03;1.95;;;21.00;52.30;;;;;;20917251;28;20130;-69
2022/05/23 00:46:11;;;;;;;4.18;2.20;;;20.90;52.40;;;;;;20917486;28;20178;-70
2022/05/23 00:56:14;;;;;;;4.45;1.90;;;20.90;52.60;;;;;;20916081;28;20077;-68
2022/05/23 01:06:16;;;;;;;3.53;2.17;;;20.90;52.40;;;;;;20916156;28;20115;-66
2022/05/23 01:16:17;;;;;;;5.18;2.00;;;21.00;52.30;;;;;;20914146;28;20045;-71
2022/05/23 01:26:19;;;;;;;4.32;2.30;;;20.90;52.10;;;;;;20913578;28;20064;-70
2022/05/23 01:36:22;;;;;;;3.45;2.08;;;20.90;52.50;;;;;;20913200;28;20041;-71
2022/05/23 01:46:25;;;;;;;;;;;20.90;52.70;;;;;;20914064;28;20550;-71
2022/05/23 01:56:32;;;;;;;4.20;1.95;;;20.70;53.20;;;;;;20911666;28;19928;-67
2022/05/23 02:06:36;;;;;;;6.13;1.95;;;20.60;53.90;;;;;;20912960;28;20135;-70
2022/05/23 02:16:40;;;;;;;3.42;1.80;;;20.60;53.60;;;;;;20928283;28;20507;-69
2022/05/23 02:26:45;;;;;;;4.68;2.20;;;20.50;53.80;;;;;;20927198;28;20095;-69
2022/05/23 02:36:48;;;;;;;6.50;1.80;;;20.50;53.50;;;;;;20926682;28;20052;-69
2022/05/23 02:46:51;;;;;;;2.90;1.60;;;;;;;;;;20926400;28;20455;-68
2022/05/23 02:56:54;;;;;;;4.75;2.00;;;;;;;;;;20926683;28;20075;-60
2022/05/23 03:06:57;;;;;;;3.40;1.70;;;;;;;;;;20923811;28;20106;-61
2022/05/23 03:17:01;;;;;;;3.50;1.58;;;;;;;;;;20921672;28;20061;-64
2022/05/23 03:27:02;;;;;;;;;;;;;;;;;;20923277;28;20053;-60
2022/05/23 03:37:06;;;;;;;4.93;1.98;;;;;;;;;;20923508;28;19944;-58
2022/05/23 03:47:07;;;;;;;7.05;2.60;;;;;;;;;;20920759;28;20060;-65
2022/05/23 03:57:09;;;;;;;4.60;2.45;;;;;;;;;;20920059;28;20044;-60
2022/05/23 04:07:11;;;;;;;5.03;2.50;;;;;;;;;;20919035;28;20051;-62
2022/05/23 04:17:13;;;;;;;5.32;2.28;;;;;;;;;;20919525;28;20045;-58
2022/05/23 04:27:17;;;;;;;4.65;2.50;;;;;;;;;;20917810;28;20412;-59
2022/05/23 04:37:19;;;;;;;7.17;2.37;;;;;;;;;;20916030;28;20087;-59
2022/05/23 04:57:42;;;;;;;6.95;2.08;;;;;;;;;;20916127;28;20110;-59
2022/05/23 05:07:44;;;;;;;6.07;2.20;;;;;;;;;;20916049;28;20477;-58
2022/05/23 05:17:46;;;;;;;4.43;2.17;;;;;;;;;;20913877;28;20045;-59
2022/05/23 05:27:48;;;;;;;6.95;2.72;;;;;;;;;;20914021;28;20045;-61
2022/05/23 05:37:57;;;;;;;5.28;2.50;;;;;;;;;;20911998;28;20048;-61
2022/05/23 05:47:59;;;;;;;5.75;2.70;;;;;;;;;;20912078;28;20049;-62
2022/05/23 05:58:01;;;;;;;7.35;2.67;;;;;;;;;;20912673;28;20053;-60
2022/05/23 06:18:24;;;;;;;4.70;2.42;;;;;;;;;;20910781;28;20096;-60
2022/05/23 06:28:27;;;;;;;6.78;3.05;;;;;;;;;;20912033;28;20053;-60
2022/05/23 06:38:29;;;;;;;7.47;2.72;;;;;;;;;;20910345;28;20049;-61
2022/05/23 06:48:31;;;;;;;6.78;2.63;;;;;;;;;;20909631;28;20087;-63
2022/05/23 06:58:33;;;;;;;7.80;2.80;;;;;;;;;;20919911;28;20501;-60
2022/05/23 07:18:56;;;;;;;7.72;2.83;;;;;;;;;;20923474;28;20504;-67
2022/05/23 07:28:58;;;;;;;5.17;2.50;;;;;;;;;;20922128;28;20049;-65
2022/05/23 07:39:01;;;;;;;5.47;2.00;;;;;;;;;;20921979;28;20045;-61
2022/05/23 07:49:05;;;;;;;5.82;2.35;;;;;;;;;;20920572;28;20068;-62
2022/05/23 08:09:27;;;;;;;5.22;1.40;;;;;;;;;;20919523;28;20041;-62
2022/05/23 08:19:30;;;;;;;6.07;2.03;;;;;;;;;;20919871;28;20037;-62
2022/05/23 08:29:33;;;;;;;3.90;1.73;;;;;;;;;;20916552;28;20053;-61
2022/05/23 08:39:35;;;;;;;5.38;1.92;;;;;;;;;;20917017;28;20135;-59
2022/05/23 08:49:37;;;;;;;6.82;2.40;;;;;;;;;;20916186;28;20413;-58
2022/05/23 08:59:42;;;;;;;5.82;2.50;;;;;;;;;;20915710;28;20164;-57
2022/05/23 09:09:44;;;;;;;6.13;2.20;;;;;;;;;;20914046;28;20168;-55
2022/05/23 09:20:00;;;;;;;4.57;2.33;;;;;;;;;;20912088;28;20149;-55
2022/05/23 09:30:05;;;;;;;7.20;2.33;;;;;;;;;;20899045;28;20549;-56
2022/05/23 09:40:12;;;;;;;6.38;2.33;;;;;;;;;;20911130;28;20122;-57
2022/05/23 09:50:28;;;;;;;17.98;15.00;;;;;;;;;;20911500;28;20041;-58
2022/05/23 10:00:55;;;;;;;6.50;2.33;;;;;;;;;;20906549;28;20053;-57
2022/05/23 10:11:05;;;;;;;4.97;2.20;;;;;;;;;;20901381;28;20195;-54
2022/05/23 10:21:20;;;;;;;7.68;5.03;;;;;;;;;;20910264;28;20049;-57
2022/05/23 10:31:31;;;;;;;4.63;1.80;;;;;;;;;;20917282;28;20045;-57
2022/05/23 10:51:53;;;;;;;10.32;2.53;;;;;;;;;;20897673;28;20674;-56
2022/05/23 11:01:54;;;;;;;;;;;;;;;;;;20880914;28;20057;-55
2022/05/23 11:12:05;;;;;;;7.50;2.30;;;;;;;;;;20881124;28;19921;-57
2022/05/23 11:22:19;;;;;;;6.43;2.87;;;;;;;;;;20880133;28;20049;-58
2022/05/23 11:42:56;;;;;;;3.15;1.92;;;;;;;;;;20918081;28;20060;-62
2022/05/23 11:53:13;;;;;;;4.90;2.97;;;;;;;;;;20919286;28;20096;-60
2022/05/23 12:03:16;;;;;;;10.32;2.40;;;;;;;;;;20918991;28;20061;-60
2022/05/23 12:13:30;;;;;;;4.85;2.05;;;;;;;;;;20920541;28;20045;-59
2022/05/23 12:23:41;;;;;;;5.45;2.08;;;;;;;;;;20918322;28;20049;-65
2022/05/23 12:33:46;;;;;;;3.17;1.80;;;;;;;;;;20918347;28;20041;-66
2022/05/23 12:44:00;;;;;;;4.32;2.30;;;;;;;;;;20916683;28;20052;-66
2022/05/23 12:54:28;;;;;;;4.93;2.38;;;;;;;;;;20914680;28;20049;-66
2022/05/23 13:04:41;;;;;;;3.20;2.25;;;;;;;;;;20915042;28;20102;-67
2022/05/23 13:14:54;;;;;;;3.53;1.90;;;;;;;;;;20913997;28;20071;-67
2022/05/23 13:24:59;;;;;;;3.78;1.90;;;;;;;;;;20914598;28;20052;-68
2022/05/23 13:35:15;;;;;;;4.03;2.40;;;;;;;;;;20913323;28;20063;-64
2022/05/23 13:45:21;;;;;;;5.05;2.10;;;;;;;;;;20912547;28;20457;-68
2022/05/23 13:55:30;;;;;;;6.22;2.10;;;;;;;;;;20912473;28;20128;-68
2022/05/23 14:05:34;;;;;;;4.32;2.17;;;;;;;;;;20923939;28;20053;-67
2022/05/23 14:15:37;;;;;;;3.72;1.80;;;;;;;;;;20922212;28;20521;-68
2022/05/23 14:25:42;;;;;;;3.65;1.80;;;;;;;;;;20938472;28;20057;-67
2022/05/23 14:35:53;;;;;;;5.40;3.00;;;;;;;;;;20938717;28;20045;-62
2022/05/23 14:45:57;;;;;;;4.15;2.15;;;;;;;;;;20937099;28;20535;-65
2022/05/23 14:56:05;;;;;;;4.28;2.40;;;;;;;;;;20937554;28;20061;-62
2022/05/23 15:06:08;;;;;;;6.22;2.63;;;;;;;;;;20937008;28;20408;-57
2022/05/23 15:16:15;;;;;;;3.08;2.08;;;;;;;;;;20929978;28;20191;-59
2022/05/23 15:26:19;;;;;;;6.07;2.53;;;;;;;;;;20922274;28;20052;-58
2022/05/23 15:36:21;;;;;;;6.97;3.00;;;;;;;;;;20920641;28;20123;-61
2022/05/23 15:46:26;;;;;;;6.15;2.38;;;;;;;;;;20920453;28;20049;-59
2022/05/23 15:56:28;;;;;;;5.97;2.75;;;;;;;;;;20919799;28;20501;-60
2022/05/23 16:06:30;;;;;;;4.18;2.25;;;;;;;;;;20918490;28;20084;-71
2022/05/23 16:16:33;;;;;;;4.22;2.40;;;;;;;;;;20918429;28;20140;-63
2022/05/23 16:26:35;;;;;;;5.18;2.72;;;;;;;;;;20917769;28;20460;-63
2022/05/23 16:36:40;;;;;;;5.20;2.38;;;;;;;;;;20917927;28;20044;-63
2022/05/23 16:46:42;;;;;;;6.05;2.85;;;;;;;;;;20916489;28;20470;-60
2022/05/23 16:56:44;;;;;;;5.43;2.65;;;;;;;;;;20914645;28;20101;-65
2022/05/23 17:06:46;;;;;;;7.70;2.22;;;;;;;;;;20911740;28;20473;-64
2022/05/23 17:16:48;;;;;;;10.52;2.90;;;;;;;;;;20914080;28;20118;-61
2022/05/23 17:26:51;;;;;;;4.43;2.10;;;;;;;;;;20914227;28;20437;-63
2022/05/23 17:36:53;;;;;;;5.75;2.72;;;;;;;;;;20912568;28;20040;-64
2022/05/23 17:46:56;;;;;;;5.18;2.45;;;;;;;;;;20912027;28;20059;-60
2022/05/23 17:56:59;;;;;;;5.68;2.17;;;;;;;;;;20910791;28;20076;-62
2022/05/23 18:07:00;;;;;;;8.40;4.05;;;;;;;;;;20912447;28;20049;-63
2022/05/23 18:27:23;;;;;;;5.90;2.27;;;;;;;;;;20911426;28;20049;-62
2022/05/23 18:37:25;;;;;;;3.95;1.90;;;;;;;;;;20909973;28;20056;-63
2022/05/23 18:47:27;;;;;;;5.97;2.72;;;;;;;;;;20908852;28;20059;-65
2022/05/23 18:57:29;;;;;;;4.07;2.67;;;;;;;;;;20924873;28;20059;-64
2022/05/23 19:07:32;;;;;;;5.43;2.13;;;;;;;;;;20923277;28;20084;-61
2022/05/23 19:17:34;;;;;;;6.90;2.92;;;;;;;;;;20923543;28;20512;-65
2022/05/23 19:27:36;;;;;;;5.97;2.60;;;;;;;;;;20922630;28;20045;-64
2022/05/23 19:37:38;;;;;;;4.60;1.58;;;;;;;;;;20922966;28;20047;-62
2022/05/23 19:47:42;;;;;;;3.47;1.80;;;;;;;;;;20922576;28;20052;-63
2022/05/23 19:57:44;;;;;;;4.50;2.90;;;;;;;;;;20920859;28;20089;-62
2022/05/23 20:07:46;;;;;;;6.72;2.63;;;;;;;;;;20919720;28;20045;-61
2022/05/23 20:17:52;;;;;;;7.68;2.30;;;;;;;;;;20920378;28;20075;-62
2022/05/23 20:27:54;;;;;;;4.57;2.80;;;;;;;;;;20917804;28;20048;-63
2022/05/23 20:37:56;;;;;;;5.28;2.83;;;;;;;;;;20917626;28;20056;-62
2022/05/23 20:47:59;;;;;;;;;;;;;;;;;;20916381;28;20049;-63
2022/05/23 20:58:00;;;;;;;5.93;1.37;;;;;;;;;;20915640;28;19921;-62
2022/05/23 21:08:05;;;;;;;3.65;1.10;;;;;;;;;;20914512;28;20056;-62
2022/05/23 21:18:10;;;;;;;1.85;1.20;;;;;;;;;;20913121;28;20053;-62
2022/05/23 21:28:12;;;;;;;2.90;1.25;;;;;;;;;;20913342;28;20060;-63
2022/05/23 21:38:13;;;;;;;2.67;1.48;;;;;;;;;;20911796;28;20041;-63
2022/05/23 21:48:15;;;;;;;2.57;1.80;;;;;;;;;;20911162;28;20131;-62
2022/05/23 21:58:18;;;;;;;4.22;1.95;;;;;;;;;;20911537;28;20297;-63
2022/05/23 22:08:20;;;;;;;4.57;1.40;;;;;;;;;;20911020;28;20053;-62
2022/05/23 22:18:23;;;;;;;10.47;1.80;;;;;;;;;;20910657;28;20128;-62
2022/05/23 22:28:25;;;;;;;3.22;1.58;;;;;;;;;;20922086;28;20084;-63
2022/05/23 22:38:27;;;;;;;2.65;1.80;;;;;;;;;;20928074;28;20127;-64
2022/05/23 22:48:30;;;;;;;7.80;1.77;;;;;;;;;;20926016;28;20056;-63
2022/05/23 22:58:33;;;;;;;4.53;1.40;;;;;;;;;;20925118;28;20052;-63
2022/05/23 23:08:34;;;;;;;;;;;;;;;;;;20925778;28;20053;-62
2022/05/23 23:18:37;;;;;;;3.72;1.27;;;;;;;;;;20923391;28;19974;-63
2022/05/23 23:28:39;;;;;;;4.38;1.55;;;;;;;;;;20923358;28;20053;-60
2022/05/23 23:38:41;;;;;;;2.83;1.60;;;;;;;;;;20922877;28;20045;-63
2022/05/23 23:48:43;;;;;;;4.78;1.40;;;;;;;;;;20922662;28;20049;-62
2022/05/23 23:58:45;;;;;;;4.30;1.37;;;;;;;;;;20921774;28;20147;-61
